Terminal Aerodrome Forecast
Issued by NWS

Home | Current Version | Previous Version | Text Only | Print | Product List | Glossary On
Versions: 1 2 3 4 5 6 7 8 9 10 11 12 13 14 15 16 17 18 19 20 21 22 23 24 25 26 27 28
000
FTUS44 KHGX 241241 AAA
TAFCXO
TAF AMD
KCXO 241241Z 2413/2512 15004KT 1SM BR BKN002 BKN025
     FM241500 15004KT P6SM BKN015
     FM241700 19011KT P6SM SCT025 BKN050
     FM250400 18007KT P6SM SCT015 BKN025
     FM250800 20006KT 6SM BR SCT007 BKN015=

USA.gov is the U.S. government's official web portal to all federal, state and local government web resources and services.